sensor_id;sensor_type;location;lat;lon;timestamp;P1;durP1;ratioP1;P2;durP2;ratioP2
25854;SDS011;13680;49.936;11.344;2023-07-28T00:01:56;4.63;;;3.42;;
25854;SDS011;13680;49.936;11.344;2023-07-28T00:04:22;8.38;;;3.65;;
25854;SDS011;13680;49.936;11.344;2023-07-28T00:06:47;5.07;;;3.80;;
25854;SDS011;13680;49.936;11.344;2023-07-28T00:09:12;4.75;;;3.80;;
25854;SDS011;13680;49.936;11.344;2023-07-28T00:11:38;5.35;;;4.22;;
25854;SDS011;13680;49.936;11.344;2023-07-28T00:14:03;8.35;;;4.05;;
25854;SDS011;13680;49.936;11.344;2023-07-28T00:16:29;7.00;;;4.57;;
25854;SDS011;13680;49.936;11.344;2023-07-28T00:18:54;10.95;;;4.78;;
25854;SDS011;13680;49.936;11.344;2023-07-28T00:21:19;6.28;;;5.13;;
25854;SDS011;13680;49.936;11.344;2023-07-28T00:23:45;9.50;;;5.82;;
25854;SDS011;13680;49.936;11.344;2023-07-28T00:26:10;6.65;;;4.60;;
25854;SDS011;13680;49.936;11.344;2023-07-28T00:28:35;10.32;;;5.35;;
25854;SDS011;13680;49.936;11.344;2023-07-28T00:31:00;7.85;;;5.20;;
25854;SDS011;13680;49.936;11.344;2023-07-28T00:33:26;6.05;;;5.00;;
25854;SDS011;13680;49.936;11.344;2023-07-28T00:35:51;10.65;;;5.85;;
25854;SDS011;13680;49.936;11.344;2023-07-28T00:38:16;6.68;;;5.10;;
25854;SDS011;13680;49.936;11.344;2023-07-28T00:40:42;6.85;;;5.43;;
25854;SDS011;13680;49.936;11.344;2023-07-28T00:43:07;6.35;;;5.13;;
25854;SDS011;13680;49.936;11.344;2023-07-28T00:45:32;7.47;;;5.28;;
25854;SDS011;13680;49.936;11.344;2023-07-28T00:47:59;7.22;;;5.43;;
25854;SDS011;13680;49.936;11.344;2023-07-28T00:50:25;6.15;;;5.40;;
25854;SDS011;13680;49.936;11.344;2023-07-28T00:52:51;6.53;;;4.97;;
25854;SDS011;13680;49.936;11.344;2023-07-28T00:55:16;5.35;;;4.80;;
25854;SDS011;13680;49.936;11.344;2023-07-28T00:57:42;6.15;;;5.18;;
25854;SDS011;13680;49.936;11.344;2023-07-28T01:00:08;9.93;;;4.65;;
25854;SDS011;13680;49.936;11.344;2023-07-28T01:02:34;7.60;;;4.32;;
25854;SDS011;13680;49.936;11.344;2023-07-28T01:05:00;6.60;;;4.47;;
25854;SDS011;13680;49.936;11.344;2023-07-28T01:10:28;8.80;;;4.00;;
25854;SDS011;13680;49.936;11.344;2023-07-28T01:12:56;5.25;;;3.67;;
25854;SDS011;13680;49.936;11.344;2023-07-28T01:15:21;4.47;;;3.88;;
25854;SDS011;13680;49.936;11.344;2023-07-28T01:17:46;3.33;;;3.03;;
25854;SDS011;13680;49.936;11.344;2023-07-28T01:20:12;4.25;;;2.75;;
25854;SDS011;13680;49.936;11.344;2023-07-28T01:22:48;6.95;;;2.72;;
25854;SDS011;13680;49.936;11.344;2023-07-28T01:25:20;2.63;;;2.10;;
25854;SDS011;13680;49.936;11.344;2023-07-28T01:27:57;4.80;;;1.95;;
25854;SDS011;13680;49.936;11.344;2023-07-28T01:30:23;2.67;;;1.92;;
25854;SDS011;13680;49.936;11.344;2023-07-28T01:32:53;5.07;;;2.00;;
25854;SDS011;13680;49.936;11.344;2023-07-28T01:35:19;3.13;;;1.77;;
25854;SDS011;13680;49.936;11.344;2023-07-28T01:37:44;2.05;;;1.52;;
25854;SDS011;13680;49.936;11.344;2023-07-28T01:40:15;1.42;;;1.30;;
25854;SDS011;13680;49.936;11.344;2023-07-28T01:42:41;1.65;;;1.23;;
25854;SDS011;13680;49.936;11.344;2023-07-28T01:45:06;1.52;;;1.40;;
25854;SDS011;13680;49.936;11.344;2023-07-28T01:47:32;3.28;;;1.40;;
25854;SDS011;13680;49.936;11.344;2023-07-28T01:49:58;2.25;;;1.50;;
25854;SDS011;13680;49.936;11.344;2023-07-28T01:52:23;2.78;;;1.67;;
25854;SDS011;13680;49.936;11.344;2023-07-28T01:54:48;1.77;;;1.63;;
25854;SDS011;13680;49.936;11.344;2023-07-28T01:57:14;1.95;;;1.40;;
25854;SDS011;13680;49.936;11.344;2023-07-28T01:59:39;3.78;;;1.95;;
25854;SDS011;13680;49.936;11.344;2023-07-28T02:02:04;2.15;;;1.65;;
25854;SDS011;13680;49.936;11.344;2023-07-28T02:04:30;2.75;;;1.80;;
25854;SDS011;13680;49.936;11.344;2023-07-28T02:06:55;2.25;;;1.52;;
25854;SDS011;13680;49.936;11.344;2023-07-28T02:09:20;2.88;;;2.05;;
25854;SDS011;13680;49.936;11.344;2023-07-28T02:11:46;3.60;;;1.70;;
25854;SDS011;13680;49.936;11.344;2023-07-28T02:14:11;3.80;;;2.00;;
25854;SDS011;13680;49.936;11.344;2023-07-28T02:16:36;3.85;;;1.67;;
25854;SDS011;13680;49.936;11.344;2023-07-28T02:19:01;4.85;;;1.90;;
25854;SDS011;13680;49.936;11.344;2023-07-28T02:21:27;3.13;;;2.08;;
25854;SDS011;13680;49.936;11.344;2023-07-28T02:23:53;1.70;;;1.60;;
25854;SDS011;13680;49.936;11.344;2023-07-28T02:26:18;2.50;;;1.70;;
25854;SDS011;13680;49.936;11.344;2023-07-28T02:28:43;5.18;;;1.77;;
25854;SDS011;13680;49.936;11.344;2023-07-28T02:31:08;4.25;;;2.10;;
25854;SDS011;13680;49.936;11.344;2023-07-28T02:33:34;2.53;;;1.73;;
25854;SDS011;13680;49.936;11.344;2023-07-28T02:36:01;2.15;;;1.85;;
25854;SDS011;13680;49.936;11.344;2023-07-28T02:38:27;6.68;;;1.73;;
25854;SDS011;13680;49.936;11.344;2023-07-28T02:40:52;2.25;;;1.80;;
25854;SDS011;13680;49.936;11.344;2023-07-28T02:43:18;1.88;;;1.60;;
25854;SDS011;13680;49.936;11.344;2023-07-28T02:45:43;2.53;;;1.90;;
25854;SDS011;13680;49.936;11.344;2023-07-28T02:48:12;3.50;;;2.13;;
25854;SDS011;13680;49.936;11.344;2023-07-28T02:50:37;2.00;;;1.60;;
25854;SDS011;13680;49.936;11.344;2023-07-28T02:53:02;3.13;;;1.98;;
25854;SDS011;13680;49.936;11.344;2023-07-28T02:55:28;3.17;;;1.90;;
25854;SDS011;13680;49.936;11.344;2023-07-28T02:57:53;2.60;;;2.08;;
25854;SDS011;13680;49.936;11.344;2023-07-28T03:00:18;2.25;;;1.70;;
25854;SDS011;13680;49.936;11.344;2023-07-28T03:02:44;4.72;;;1.73;;
25854;SDS011;13680;49.936;11.344;2023-07-28T03:05:09;2.33;;;2.10;;
25854;SDS011;13680;49.936;11.344;2023-07-28T03:07:34;3.63;;;2.10;;
25854;SDS011;13680;49.936;11.344;2023-07-28T03:10:00;2.15;;;1.80;;
25854;SDS011;13680;49.936;11.344;2023-07-28T03:12:25;3.42;;;1.70;;
25854;SDS011;13680;49.936;11.344;2023-07-28T03:14:50;3.85;;;2.00;;
25854;SDS011;13680;49.936;11.344;2023-07-28T03:17:15;3.28;;;2.20;;
25854;SDS011;13680;49.936;11.344;2023-07-28T03:19:41;2.35;;;1.80;;
25854;SDS011;13680;49.936;11.344;2023-07-28T03:22:06;2.45;;;2.03;;
25854;SDS011;13680;49.936;11.344;2023-07-28T03:24:32;2.95;;;1.70;;
25854;SDS011;13680;49.936;11.344;2023-07-28T03:26:58;2.35;;;1.77;;
25854;SDS011;13680;49.936;11.344;2023-07-28T03:29:23;5.75;;;1.85;;
25854;SDS011;13680;49.936;11.344;2023-07-28T03:31:48;4.70;;;1.70;;
25854;SDS011;13680;49.936;11.344;2023-07-28T03:34:13;7.53;;;2.50;;
25854;SDS011;13680;49.936;11.344;2023-07-28T03:36:39;4.05;;;1.63;;
25854;SDS011;13680;49.936;11.344;2023-07-28T03:39:04;2.70;;;1.70;;
25854;SDS011;13680;49.936;11.344;2023-07-28T03:41:29;3.63;;;1.48;;
25854;SDS011;13680;49.936;11.344;2023-07-28T03:43:55;2.30;;;1.75;;
25854;SDS011;13680;49.936;11.344;2023-07-28T03:46:20;2.10;;;1.90;;
25854;SDS011;13680;49.936;11.344;2023-07-28T03:48:46;2.45;;;2.13;;
25854;SDS011;13680;49.936;11.344;2023-07-28T03:51:11;2.78;;;2.10;;
25854;SDS011;13680;49.936;11.344;2023-07-28T03:53:37;3.33;;;2.70;;
25854;SDS011;13680;49.936;11.344;2023-07-28T03:56:02;3.80;;;2.45;;
25854;SDS011;13680;49.936;11.344;2023-07-28T03:58:28;2.83;;;2.60;;
25854;SDS011;13680;49.936;11.344;2023-07-28T04:00:54;2.83;;;2.63;;
25854;SDS011;13680;49.936;11.344;2023-07-28T04:03:19;3.58;;;2.60;;
25854;SDS011;13680;49.936;11.344;2023-07-28T04:05:45;4.32;;;2.60;;
25854;SDS011;13680;49.936;11.344;2023-07-28T04:08:10;4.30;;;2.53;;
25854;SDS011;13680;49.936;11.344;2023-07-28T04:10:35;3.78;;;2.45;;
25854;SDS011;13680;49.936;11.344;2023-07-28T04:13:01;4.43;;;2.53;;
25854;SDS011;13680;49.936;11.344;2023-07-28T04:15:26;4.30;;;2.78;;
25854;SDS011;13680;49.936;11.344;2023-07-28T04:17:51;5.50;;;2.70;;
25854;SDS011;13680;49.936;11.344;2023-07-28T04:20:16;2.78;;;2.58;;
25854;SDS011;13680;49.936;11.344;2023-07-28T04:22:42;3.50;;;2.13;;
25854;SDS011;13680;49.936;11.344;2023-07-28T04:25:07;2.85;;;2.13;;
25854;SDS011;13680;49.936;11.344;2023-07-28T04:27:32;2.58;;;2.38;;
25854;SDS011;13680;49.936;11.344;2023-07-28T04:29:58;2.53;;;2.28;;
25854;SDS011;13680;49.936;11.344;2023-07-28T04:32:23;4.40;;;2.13;;
25854;SDS011;13680;49.936;11.344;2023-07-28T04:34:49;2.75;;;1.85;;
25854;SDS011;13680;49.936;11.344;2023-07-28T04:37:15;2.50;;;1.73;;
25854;SDS011;13680;49.936;11.344;2023-07-28T04:39:40;2.25;;;1.90;;
25854;SDS011;13680;49.936;11.344;2023-07-28T04:42:05;4.43;;;2.00;;
25854;SDS011;13680;49.936;11.344;2023-07-28T04:44:31;4.78;;;1.70;;
25854;SDS011;13680;49.936;11.344;2023-07-28T04:46:56;1.52;;;1.40;;
25854;SDS011;13680;49.936;11.344;2023-07-28T04:49:21;4.72;;;1.58;;
25854;SDS011;13680;49.936;11.344;2023-07-28T04:51:47;1.65;;;1.40;;
25854;SDS011;13680;49.936;11.344;2023-07-28T04:54:12;2.88;;;1.77;;
25854;SDS011;13680;49.936;11.344;2023-07-28T04:56:37;2.50;;;2.10;;
25854;SDS011;13680;49.936;11.344;2023-07-28T04:59:03;2.72;;;2.13;;
25854;SDS011;13680;49.936;11.344;2023-07-28T05:01:29;2.58;;;2.10;;
25854;SDS011;13680;49.936;11.344;2023-07-28T05:03:54;6.65;;;2.05;;
25854;SDS011;13680;49.936;11.344;2023-07-28T05:06:20;1.95;;;1.38;;
25854;SDS011;13680;49.936;11.344;2023-07-28T05:08:45;2.60;;;1.90;;
25854;SDS011;13680;49.936;11.344;2023-07-28T05:11:10;1.88;;;1.33;;
25854;SDS011;13680;49.936;11.344;2023-07-28T05:13:36;2.20;;;1.60;;
25854;SDS011;13680;49.936;11.344;2023-07-28T05:16:01;3.03;;;1.30;;
25854;SDS011;13680;49.936;11.344;2023-07-28T05:18:26;1.35;;;1.25;;
25854;SDS011;13680;49.936;11.344;2023-07-28T05:20:51;2.60;;;1.48;;
25854;SDS011;13680;49.936;11.344;2023-07-28T05:23:17;1.95;;;1.27;;
25854;SDS011;13680;49.936;11.344;2023-07-28T05:25:42;1.95;;;1.50;;
25854;SDS011;13680;49.936;11.344;2023-07-28T05:28:07;1.30;;;1.15;;
25854;SDS011;13680;49.936;11.344;2023-07-28T05:30:33;1.48;;;1.30;;
25854;SDS011;13680;49.936;11.344;2023-07-28T05:32:58;3.67;;;1.40;;
25854;SDS011;13680;49.936;11.344;2023-07-28T05:35:23;2.67;;;1.30;;
25854;SDS011;13680;49.936;11.344;2023-07-28T05:37:48;1.58;;;1.48;;
25854;SDS011;13680;49.936;11.344;2023-07-28T05:40:15;2.47;;;1.23;;
25854;SDS011;13680;49.936;11.344;2023-07-28T05:42:40;1.73;;;1.23;;
25854;SDS011;13680;49.936;11.344;2023-07-28T05:45:06;2.17;;;1.20;;
25854;SDS011;13680;49.936;11.344;2023-07-28T05:47:31;2.25;;;1.27;;
25854;SDS011;13680;49.936;11.344;2023-07-28T05:49:56;1.48;;;1.27;;
25854;SDS011;13680;49.936;11.344;2023-07-28T05:52:22;3.45;;;1.40;;
25854;SDS011;13680;49.936;11.344;2023-07-28T05:54:47;2.25;;;1.30;;
25854;SDS011;13680;49.936;11.344;2023-07-28T05:57:13;2.25;;;1.30;;
25854;SDS011;13680;49.936;11.344;2023-07-28T05:59:39;1.77;;;1.25;;
25854;SDS011;13680;49.936;11.344;2023-07-28T06:02:04;1.38;;;1.17;;
25854;SDS011;13680;49.936;11.344;2023-07-28T06:04:30;1.27;;;1.13;;
25854;SDS011;13680;49.936;11.344;2023-07-28T06:06:55;2.17;;;1.02;;
25854;SDS011;13680;49.936;11.344;2023-07-28T06:09:20;1.02;;;0.93;;
25854;SDS011;13680;49.936;11.344;2023-07-28T06:11:45;1.75;;;1.10;;
25854;SDS011;13680;49.936;11.344;2023-07-28T06:14:11;2.22;;;1.20;;
25854;SDS011;13680;49.936;11.344;2023-07-28T06:16:36;2.20;;;1.10;;
25854;SDS011;13680;49.936;11.344;2023-07-28T06:19:01;1.15;;;0.85;;
25854;SDS011;13680;49.936;11.344;2023-07-28T06:21:27;1.58;;;1.10;;
25854;SDS011;13680;49.936;11.344;2023-07-28T06:23:52;1.13;;;0.95;;
25854;SDS011;13680;49.936;11.344;2023-07-28T06:26:18;1.35;;;0.93;;
25854;SDS011;13680;49.936;11.344;2023-07-28T06:28:43;1.33;;;1.08;;
25854;SDS011;13680;49.936;11.344;2023-07-28T06:31:08;1.25;;;0.80;;
25854;SDS011;13680;49.936;11.344;2023-07-28T06:33:34;2.88;;;0.93;;
25854;SDS011;13680;49.936;11.344;2023-07-28T06:36:03;2.17;;;1.27;;
25854;SDS011;13680;49.936;11.344;2023-07-28T06:38:29;1.08;;;0.85;;
25854;SDS011;13680;49.936;11.344;2023-07-28T06:40:54;1.13;;;1.00;;
25854;SDS011;13680;49.936;11.344;2023-07-28T06:43:20;3.92;;;0.90;;
25854;SDS011;13680;49.936;11.344;2023-07-28T06:45:46;1.35;;;0.90;;
25854;SDS011;13680;49.936;11.344;2023-07-28T06:48:11;0.95;;;0.85;;
25854;SDS011;13680;49.936;11.344;2023-07-28T06:50:37;1.73;;;0.90;;
25854;SDS011;13680;49.936;11.344;2023-07-28T06:53:02;0.80;;;0.80;;
25854;SDS011;13680;49.936;11.344;2023-07-28T06:55:27;1.13;;;0.90;;
25854;SDS011;13680;49.936;11.344;2023-07-28T06:57:53;2.95;;;1.10;;
25854;SDS011;13680;49.936;11.344;2023-07-28T07:00:18;2.40;;;1.20;;
25854;SDS011;13680;49.936;11.344;2023-07-28T07:02:44;1.88;;;1.20;;
25854;SDS011;13680;49.936;11.344;2023-07-28T07:05:10;1.52;;;1.20;;
25854;SDS011;13680;49.936;11.344;2023-07-28T07:07:36;1.67;;;1.02;;
25854;SDS011;13680;49.936;11.344;2023-07-28T07:10:01;2.10;;;1.00;;
25854;SDS011;13680;49.936;11.344;2023-07-28T07:12:27;1.23;;;1.13;;
25854;SDS011;13680;49.936;11.344;2023-07-28T07:14:52;2.58;;;1.00;;
25854;SDS011;13680;49.936;11.344;2023-07-28T07:17:18;3.13;;;1.30;;
25854;SDS011;13680;49.936;11.344;2023-07-28T07:19:43;1.73;;;1.13;;
25854;SDS011;13680;49.936;11.344;2023-07-28T07:22:09;1.67;;;1.15;;
25854;SDS011;13680;49.936;11.344;2023-07-28T07:24:34;1.67;;;0.82;;
25854;SDS011;13680;49.936;11.344;2023-07-28T07:27:00;2.33;;;1.00;;
25854;SDS011;13680;49.936;11.344;2023-07-28T07:29:25;1.60;;;0.85;;
25854;SDS011;13680;49.936;11.344;2023-07-28T07:31:51;1.25;;;0.73;;
25854;SDS011;13680;49.936;11.344;2023-07-28T07:34:21;1.98;;;1.08;;
25854;SDS011;13680;49.936;11.344;2023-07-28T07:36:50;1.33;;;0.90;;
25854;SDS011;13680;49.936;11.344;2023-07-28T07:39:15;2.28;;;1.00;;
25854;SDS011;13680;49.936;11.344;2023-07-28T07:41:41;1.10;;;1.00;;
25854;SDS011;13680;49.936;11.344;2023-07-28T07:44:06;1.20;;;1.10;;
25854;SDS011;13680;49.936;11.344;2023-07-28T07:46:31;1.75;;;0.90;;
25854;SDS011;13680;49.936;11.344;2023-07-28T07:48:57;2.78;;;0.93;;
25854;SDS011;13680;49.936;11.344;2023-07-28T07:51:22;2.72;;;1.00;;
25854;SDS011;13680;49.936;11.344;2023-07-28T07:53:48;2.63;;;0.95;;
25854;SDS011;13680;49.936;11.344;2023-07-28T07:56:14;1.30;;;1.00;;
25854;SDS011;13680;49.936;11.344;2023-07-28T07:58:40;2.70;;;0.93;;
25854;SDS011;13680;49.936;11.344;2023-07-28T08:01:05;0.95;;;0.85;;
25854;SDS011;13680;49.936;11.344;2023-07-28T08:03:31;2.05;;;0.90;;
25854;SDS011;13680;49.936;11.344;2023-07-28T08:06:01;3.90;;;1.15;;
25854;SDS011;13680;49.936;11.344;2023-07-28T08:08:26;1.00;;;0.90;;
25854;SDS011;13680;49.936;11.344;2023-07-28T08:10:52;2.13;;;1.13;;
25854;SDS011;13680;49.936;11.344;2023-07-28T08:13:17;1.80;;;0.82;;
25854;SDS011;13680;49.936;11.344;2023-07-28T08:15:43;1.10;;;1.00;;
25854;SDS011;13680;49.936;11.344;2023-07-28T08:18:10;1.80;;;0.93;;
25854;SDS011;13680;49.936;11.344;2023-07-28T08:20:36;12.07;;;1.55;;
25854;SDS011;13680;49.936;11.344;2023-07-28T08:23:01;4.95;;;1.23;;
25854;SDS011;13680;49.936;11.344;2023-07-28T08:25:27;3.83;;;1.30;;
25854;SDS011;13680;49.936;11.344;2023-07-28T08:27:52;1.85;;;1.10;;
25854;SDS011;13680;49.936;11.344;2023-07-28T08:30:18;2.25;;;1.33;;
25854;SDS011;13680;49.936;11.344;2023-07-28T08:32:43;1.90;;;1.20;;
25854;SDS011;13680;49.936;11.344;2023-07-28T08:35:09;1.30;;;1.02;;
25854;SDS011;13680;49.936;11.344;2023-07-28T08:37:35;1.98;;;1.33;;
25854;SDS011;13680;49.936;11.344;2023-07-28T08:40:00;2.22;;;1.20;;
25854;SDS011;13680;49.936;11.344;2023-07-28T08:42:28;2.08;;;1.30;;
25854;SDS011;13680;49.936;11.344;2023-07-28T08:44:54;2.63;;;1.40;;
25854;SDS011;13680;49.936;11.344;2023-07-28T08:47:20;1.58;;;1.42;;
25854;SDS011;13680;49.936;11.344;2023-07-28T08:49:46;1.10;;;1.00;;
25854;SDS011;13680;49.936;11.344;2023-07-28T08:52:14;1.98;;;1.20;;
25854;SDS011;13680;49.936;11.344;2023-07-28T08:54:41;3.65;;;1.10;;
25854;SDS011;13680;49.936;11.344;2023-07-28T08:57:08;2.33;;;1.17;;
25854;SDS011;13680;49.936;11.344;2023-07-28T08:59:35;2.85;;;1.17;;
25854;SDS011;13680;49.936;11.344;2023-07-28T09:02:03;2.58;;;1.30;;
25854;SDS011;13680;49.936;11.344;2023-07-28T09:04:30;2.42;;;1.20;;
25854;SDS011;13680;49.936;11.344;2023-07-28T09:06:56;1.50;;;1.20;;
25854;SDS011;13680;49.936;11.344;2023-07-28T09:09:22;1.35;;;1.10;;
25854;SDS011;13680;49.936;11.344;2023-07-28T09:11:48;1.20;;;1.00;;
25854;SDS011;13680;49.936;11.344;2023-07-28T09:14:15;4.95;;;2.03;;
25854;SDS011;13680;49.936;11.344;2023-07-28T09:16:44;1.42;;;1.10;;
25854;SDS011;13680;49.936;11.344;2023-07-28T09:19:09;2.70;;;1.20;;
25854;SDS011;13680;49.936;11.344;2023-07-28T09:21:36;2.58;;;1.20;;
25854;SDS011;13680;49.936;11.344;2023-07-28T09:24:06;3.00;;;1.27;;
25854;SDS011;13680;49.936;11.344;2023-07-28T09:26:40;2.00;;;1.40;;
25854;SDS011;13680;49.936;11.344;2023-07-28T09:29:13;1.50;;;1.40;;
25854;SDS011;13680;49.936;11.344;2023-07-28T09:31:40;1.65;;;1.15;;
25854;SDS011;13680;49.936;11.344;2023-07-28T09:34:06;1.70;;;1.23;;
25854;SDS011;13680;49.936;11.344;2023-07-28T09:36:34;1.52;;;0.98;;
25854;SDS011;13680;49.936;11.344;2023-07-28T09:38:59;1.75;;;1.25;;
25854;SDS011;13680;49.936;11.344;2023-07-28T09:41:29;1.73;;;1.40;;
25854;SDS011;13680;49.936;11.344;2023-07-28T09:43:55;2.47;;;1.50;;
25854;SDS011;13680;49.936;11.344;2023-07-28T09:46:22;4.80;;;1.20;;
25854;SDS011;13680;49.936;11.344;2023-07-28T09:48:49;4.75;;;1.38;;
25854;SDS011;13680;49.936;11.344;2023-07-28T09:51:20;0.98;;;0.93;;
25854;SDS011;13680;49.936;11.344;2023-07-28T09:53:58;1.10;;;1.00;;
25854;SDS011;13680;49.936;11.344;2023-07-28T09:56:29;2.60;;;1.30;;
25854;SDS011;13680;49.936;11.344;2023-07-28T09:58:55;3.17;;;1.20;;
25854;SDS011;13680;49.936;11.344;2023-07-28T10:01:22;1.85;;;1.40;;
25854;SDS011;13680;49.936;11.344;2023-07-28T10:03:48;1.50;;;1.08;;
25854;SDS011;13680;49.936;11.344;2023-07-28T10:06:14;1.67;;;1.30;;
25854;SDS011;13680;49.936;11.344;2023-07-28T10:08:44;1.33;;;1.20;;
25854;SDS011;13680;49.936;11.344;2023-07-28T10:11:14;1.27;;;1.10;;
25854;SDS011;13680;49.936;11.344;2023-07-28T10:13:40;1.17;;;1.08;;
25854;SDS011;13680;49.936;11.344;2023-07-28T10:16:11;3.92;;;1.30;;
25854;SDS011;13680;49.936;11.344;2023-07-28T10:18:39;3.35;;;0.90;;
25854;SDS011;13680;49.936;11.344;2023-07-28T10:21:06;5.03;;;1.45;;
25854;SDS011;13680;49.936;11.344;2023-07-28T10:23:34;1.45;;;1.13;;
25854;SDS011;13680;49.936;11.344;2023-07-28T10:26:02;1.92;;;1.10;;
25854;SDS011;13680;49.936;11.344;2023-07-28T10:28:34;1.25;;;1.13;;
25854;SDS011;13680;49.936;11.344;2023-07-28T10:31:06;1.55;;;1.38;;
25854;SDS011;13680;49.936;11.344;2023-07-28T10:33:33;2.90;;;1.17;;
25854;SDS011;13680;49.936;11.344;2023-07-28T10:38:43;1.55;;;1.35;;
25854;SDS011;13680;49.936;11.344;2023-07-28T10:41:10;2.03;;;1.50;;
25854;SDS011;13680;49.936;11.344;2023-07-28T10:43:37;3.50;;;1.52;;
25854;SDS011;13680;49.936;11.344;2023-07-28T10:46:04;3.42;;;1.55;;
25854;SDS011;13680;49.936;11.344;2023-07-28T10:48:31;1.35;;;1.25;;
25854;SDS011;13680;49.936;11.344;2023-07-28T10:50:56;1.88;;;1.15;;
25854;SDS011;13680;49.936;11.344;2023-07-28T10:53:21;1.60;;;1.33;;
25854;SDS011;13680;49.936;11.344;2023-07-28T10:55:47;1.90;;;1.33;;
25854;SDS011;13680;49.936;11.344;2023-07-28T10:58:12;3.45;;;1.20;;
25854;SDS011;13680;49.936;11.344;2023-07-28T11:00:38;1.35;;;0.90;;
25854;SDS011;13680;49.936;11.344;2023-07-28T11:03:03;2.08;;;1.30;;
25854;SDS011;13680;49.936;11.344;2023-07-28T11:05:29;3.47;;;1.40;;
25854;SDS011;13680;49.936;11.344;2023-07-28T11:07:56;1.85;;;1.20;;
25854;SDS011;13680;49.936;11.344;2023-07-28T11:10:22;2.85;;;0.80;;
25854;SDS011;13680;49.936;11.344;2023-07-28T11:12:49;0.90;;;0.90;;
25854;SDS011;13680;49.936;11.344;2023-07-28T11:15:16;1.38;;;0.80;;
25854;SDS011;13680;49.936;11.344;2023-07-28T11:17:44;2.28;;;0.90;;
25854;SDS011;13680;49.936;11.344;2023-07-28T11:20:15;0.88;;;0.80;;
25854;SDS011;13680;49.936;11.344;2023-07-28T11:22:58;0.80;;;0.77;;
25854;SDS011;13680;49.936;11.344;2023-07-28T11:25:25;1.63;;;0.80;;
25854;SDS011;13680;49.936;11.344;2023-07-28T11:27:53;1.23;;;0.90;;
25854;SDS011;13680;49.936;11.344;2023-07-28T11:30:20;1.70;;;0.90;;
25854;SDS011;13680;49.936;11.344;2023-07-28T11:32:46;2.92;;;0.93;;
25854;SDS011;13680;49.936;11.344;2023-07-28T11:35:12;0.85;;;0.80;;
25854;SDS011;13680;49.936;11.344;2023-07-28T11:37:39;1.00;;;0.70;;
25854;SDS011;13680;49.936;11.344;2023-07-28T11:40:07;3.28;;;1.08;;
25854;SDS011;13680;49.936;11.344;2023-07-28T11:42:39;2.47;;;0.70;;
25854;SDS011;13680;49.936;11.344;2023-07-28T11:45:06;1.73;;;0.75;;
25854;SDS011;13680;49.936;11.344;2023-07-28T11:47:32;2.83;;;0.90;;
25854;SDS011;13680;49.936;11.344;2023-07-28T11:49:58;4.60;;;0.80;;
25854;SDS011;13680;49.936;11.344;2023-07-28T11:52:34;6.35;;;0.80;;
25854;SDS011;13680;49.936;11.344;2023-07-28T11:55:02;1.52;;;0.88;;
25854;SDS011;13680;49.936;11.344;2023-07-28T11:57:29;0.80;;;0.65;;
25854;SDS011;13680;49.936;11.344;2023-07-28T11:59:58;1.33;;;0.70;;
25854;SDS011;13680;49.936;11.344;2023-07-28T12:02:25;0.88;;;0.70;;
25854;SDS011;13680;49.936;11.344;2023-07-28T12:04:51;3.65;;;0.90;;
25854;SDS011;13680;49.936;11.344;2023-07-28T12:07:19;3.10;;;0.90;;
25854;SDS011;13680;49.936;11.344;2023-07-28T12:09:52;1.73;;;0.90;;
25854;SDS011;13680;49.936;11.344;2023-07-28T12:12:21;1.88;;;0.80;;
25854;SDS011;13680;49.936;11.344;2023-07-28T12:14:48;1.23;;;1.02;;
25854;SDS011;13680;49.936;11.344;2023-07-28T12:17:22;0.98;;;0.77;;
25854;SDS011;13680;49.936;11.344;2023-07-28T12:22:28;1.10;;;0.70;;
25854;SDS011;13680;49.936;11.344;2023-07-28T12:24:53;1.65;;;0.90;;
25854;SDS011;13680;49.936;11.344;2023-07-28T12:27:20;2.45;;;0.88;;
25854;SDS011;13680;49.936;11.344;2023-07-28T12:29:48;1.92;;;0.85;;
25854;SDS011;13680;49.936;11.344;2023-07-28T12:32:14;1.38;;;0.80;;
25854;SDS011;13680;49.936;11.344;2023-07-28T12:34:39;2.30;;;0.70;;
25854;SDS011;13680;49.936;11.344;2023-07-28T12:37:06;4.32;;;0.80;;
25854;SDS011;13680;49.936;11.344;2023-07-28T12:39:31;5.10;;;0.82;;
25854;SDS011;13680;49.936;11.344;2023-07-28T12:41:57;4.60;;;0.82;;
25854;SDS011;13680;49.936;11.344;2023-07-28T12:44:22;1.27;;;0.63;;
25854;SDS011;13680;49.936;11.344;2023-07-28T12:46:47;1.25;;;0.80;;
25854;SDS011;13680;49.936;11.344;2023-07-28T12:49:13;2.25;;;0.90;;
25854;SDS011;13680;49.936;11.344;2023-07-28T12:51:40;1.45;;;1.00;;
25854;SDS011;13680;49.936;11.344;2023-07-28T12:54:05;0.85;;;0.65;;
25854;SDS011;13680;49.936;11.344;2023-07-28T12:56:30;1.55;;;0.80;;
25854;SDS011;13680;49.936;11.344;2023-07-28T12:58:56;1.60;;;1.13;;
25854;SDS011;13680;49.936;11.344;2023-07-28T13:01:21;1.90;;;0.90;;
25854;SDS011;13680;49.936;11.344;2023-07-28T13:03:46;1.25;;;0.90;;
25854;SDS011;13680;49.936;11.344;2023-07-28T13:06:12;1.65;;;1.10;;
25854;SDS011;13680;49.936;11.344;2023-07-28T13:08:37;1.20;;;0.80;;
25854;SDS011;13680;49.936;11.344;2023-07-28T13:11:03;2.38;;;0.85;;
25854;SDS011;13680;49.936;11.344;2023-07-28T13:13:28;1.45;;;0.88;;
25854;SDS011;13680;49.936;11.344;2023-07-28T13:15:55;3.10;;;1.17;;
25854;SDS011;13680;49.936;11.344;2023-07-28T13:18:21;1.20;;;0.93;;
25854;SDS011;13680;49.936;11.344;2023-07-28T13:20:46;1.33;;;0.88;;
25854;SDS011;13680;49.936;11.344;2023-07-28T13:23:12;1.77;;;1.30;;
25854;SDS011;13680;49.936;11.344;2023-07-28T13:25:37;1.10;;;1.00;;
25854;SDS011;13680;49.936;11.344;2023-07-28T13:28:03;0.98;;;0.80;;
25854;SDS011;13680;49.936;11.344;2023-07-28T13:30:29;1.45;;;0.98;;
25854;SDS011;13680;49.936;11.344;2023-07-28T13:32:55;5.20;;;1.27;;
25854;SDS011;13680;49.936;11.344;2023-07-28T13:35:20;1.05;;;0.90;;
25854;SDS011;13680;49.936;11.344;2023-07-28T13:37:45;1.45;;;1.35;;
25854;SDS011;13680;49.936;11.344;2023-07-28T13:40:11;1.30;;;0.90;;
25854;SDS011;13680;49.936;11.344;2023-07-28T13:42:36;2.88;;;1.10;;
25854;SDS011;13680;49.936;11.344;2023-07-28T13:45:01;3.97;;;0.65;;
25854;SDS011;13680;49.936;11.344;2023-07-28T13:47:27;2.65;;;1.25;;
25854;SDS011;13680;49.936;11.344;2023-07-28T13:49:52;1.73;;;1.00;;
25854;SDS011;13680;49.936;11.344;2023-07-28T13:52:18;1.80;;;0.90;;
25854;SDS011;13680;49.936;11.344;2023-07-28T13:54:43;1.20;;;0.85;;
25854;SDS011;13680;49.936;11.344;2023-07-28T13:57:09;1.13;;;1.02;;
25854;SDS011;13680;49.936;11.344;2023-07-28T13:59:35;2.40;;;1.00;;
25854;SDS011;13680;49.936;11.344;2023-07-28T14:02:00;1.27;;;1.10;;
25854;SDS011;13680;49.936;11.344;2023-07-28T14:04:26;1.67;;;0.90;;
25854;SDS011;13680;49.936;11.344;2023-07-28T14:06:51;1.33;;;1.00;;
25854;SDS011;13680;49.936;11.344;2023-07-28T14:09:16;1.27;;;0.93;;
25854;SDS011;13680;49.936;11.344;2023-07-28T14:11:42;0.80;;;0.80;;
25854;SDS011;13680;49.936;11.344;2023-07-28T14:14:07;1.98;;;1.00;;
25854;SDS011;13680;49.936;11.344;2023-07-28T14:16:32;1.33;;;0.85;;
25854;SDS011;13680;49.936;11.344;2023-07-28T14:18:58;0.90;;;0.82;;
25854;SDS011;13680;49.936;11.344;2023-07-28T14:21:23;2.00;;;0.93;;
25854;SDS011;13680;49.936;11.344;2023-07-28T14:23:48;3.78;;;0.90;;
25854;SDS011;13680;49.936;11.344;2023-07-28T14:26:14;2.25;;;0.90;;
25854;SDS011;13680;49.936;11.344;2023-07-28T14:28:39;0.98;;;0.90;;
25854;SDS011;13680;49.936;11.344;2023-07-28T14:31:04;2.97;;;1.10;;
25854;SDS011;13680;49.936;11.344;2023-07-28T14:33:30;1.58;;;0.90;;
25854;SDS011;13680;49.936;11.344;2023-07-28T14:35:55;2.35;;;0.70;;